sensor_id;sensor_type;location;lat;lon;timestamp;P1;durP1;ratioP1;P2;durP2;ratioP2
47161;SDS011;32921;53.256;8.198;2023-09-30T00:01:17;244.18;;;227.90;;
47161;SDS011;32921;53.256;8.198;2023-09-30T00:03:43;222.75;;;207.88;;
47161;SDS011;32921;53.256;8.198;2023-09-30T00:06:09;249.00;;;232.43;;
47161;SDS011;32921;53.256;8.198;2023-09-30T00:08:35;230.95;;;215.65;;
47161;SDS011;32921;53.256;8.198;2023-09-30T00:11:01;259.77;;;242.65;;
47161;SDS011;32921;53.256;8.198;2023-09-30T00:13:26;236.90;;;220.88;;
47161;SDS011;32921;53.256;8.198;2023-09-30T00:15:53;233.90;;;218.05;;
47161;SDS011;32921;53.256;8.198;2023-09-30T00:18:19;238.02;;;221.82;;
47161;SDS011;32921;53.256;8.198;2023-09-30T00:20:44;244.70;;;228.20;;
47161;SDS011;32921;53.256;8.198;2023-09-30T00:23:10;241.10;;;225.10;;
47161;SDS011;32921;53.256;8.198;2023-09-30T00:25:35;245.13;;;228.60;;
47161;SDS011;32921;53.256;8.198;2023-09-30T00:28:01;258.67;;;241.23;;
47161;SDS011;32921;53.256;8.198;2023-09-30T00:30:27;242.80;;;225.27;;
47161;SDS011;32921;53.256;8.198;2023-09-30T00:32:52;246.43;;;230.02;;
47161;SDS011;32921;53.256;8.198;2023-09-30T00:35:18;231.07;;;215.32;;
47161;SDS011;32921;53.256;8.198;2023-09-30T00:37:43;227.75;;;212.38;;
47161;SDS011;32921;53.256;8.198;2023-09-30T00:40:09;231.00;;;215.52;;
47161;SDS011;32921;53.256;8.198;2023-09-30T00:42:37;211.90;;;197.50;;
47161;SDS011;32921;53.256;8.198;2023-09-30T00:45:03;208.45;;;194.35;;
47161;SDS011;32921;53.256;8.198;2023-09-30T00:47:30;258.15;;;241.02;;
47161;SDS011;32921;53.256;8.198;2023-09-30T00:49:56;226.15;;;210.73;;
47161;SDS011;32921;53.256;8.198;2023-09-30T00:52:21;231.45;;;215.98;;
47161;SDS011;32921;53.256;8.198;2023-09-30T00:54:47;244.65;;;228.32;;
47161;SDS011;32921;53.256;8.198;2023-09-30T00:57:14;238.73;;;222.85;;
47161;SDS011;32921;53.256;8.198;2023-09-30T00:59:40;234.43;;;217.57;;
47161;SDS011;32921;53.256;8.198;2023-09-30T01:02:06;233.52;;;217.77;;
47161;SDS011;32921;53.256;8.198;2023-09-30T01:04:32;245.30;;;228.57;;
47161;SDS011;32921;53.256;8.198;2023-09-30T01:06:58;239.07;;;223.23;;
47161;SDS011;32921;53.256;8.198;2023-09-30T01:09:24;230.13;;;214.90;;
47161;SDS011;32921;53.256;8.198;2023-09-30T01:11:50;220.50;;;205.57;;
47161;SDS011;32921;53.256;8.198;2023-09-30T01:14:25;236.80;;;221.13;;
47161;SDS011;32921;53.256;8.198;2023-09-30T01:16:52;235.52;;;220.07;;
47161;SDS011;32921;53.256;8.198;2023-09-30T01:19:18;226.80;;;211.45;;
47161;SDS011;32921;53.256;8.198;2023-09-30T01:21:44;255.20;;;237.93;;
47161;SDS011;32921;53.256;8.198;2023-09-30T01:24:13;246.82;;;230.35;;
47161;SDS011;32921;53.256;8.198;2023-09-30T01:26:39;233.63;;;217.90;;
47161;SDS011;32921;53.256;8.198;2023-09-30T01:29:05;234.07;;;218.55;;
47161;SDS011;32921;53.256;8.198;2023-09-30T01:31:31;219.90;;;205.38;;
47161;SDS011;32921;53.256;8.198;2023-09-30T01:33:56;250.43;;;233.48;;
47161;SDS011;32921;53.256;8.198;2023-09-30T01:36:22;232.48;;;216.48;;
47161;SDS011;32921;53.256;8.198;2023-09-30T01:38:47;221.00;;;206.10;;
47161;SDS011;32921;53.256;8.198;2023-09-30T01:41:13;256.02;;;238.80;;
47161;SDS011;32921;53.256;8.198;2023-09-30T01:43:38;251.02;;;234.48;;
47161;SDS011;32921;53.256;8.198;2023-09-30T01:46:04;229.25;;;213.77;;
47161;SDS011;32921;53.256;8.198;2023-09-30T01:48:31;221.25;;;206.35;;
47161;SDS011;32921;53.256;8.198;2023-09-30T01:50:56;235.80;;;220.07;;
47161;SDS011;32921;53.256;8.198;2023-09-30T01:53:22;221.07;;;206.30;;
47161;SDS011;32921;53.256;8.198;2023-09-30T01:55:48;242.88;;;226.88;;
47161;SDS011;32921;53.256;8.198;2023-09-30T01:58:13;235.73;;;220.05;;
47161;SDS011;32921;53.256;8.198;2023-09-30T02:00:39;240.55;;;224.38;;
47161;SDS011;32921;53.256;8.198;2023-09-30T02:03:05;252.80;;;236.43;;
47161;SDS011;32921;53.256;8.198;2023-09-30T02:05:30;234.52;;;218.65;;
47161;SDS011;32921;53.256;8.198;2023-09-30T02:07:56;243.35;;;227.25;;
47161;SDS011;32921;53.256;8.198;2023-09-30T02:10:21;243.35;;;227.10;;
47161;SDS011;32921;53.256;8.198;2023-09-30T02:12:47;235.50;;;219.18;;
47161;SDS011;32921;53.256;8.198;2023-09-30T02:15:13;234.18;;;218.73;;
47161;SDS011;32921;53.256;8.198;2023-09-30T02:17:39;233.75;;;218.40;;
47161;SDS011;32921;53.256;8.198;2023-09-30T02:20:10;232.90;;;217.50;;
47161;SDS011;32921;53.256;8.198;2023-09-30T02:22:37;230.38;;;215.35;;
47161;SDS011;32921;53.256;8.198;2023-09-30T02:25:04;230.63;;;213.75;;
47161;SDS011;32921;53.256;8.198;2023-09-30T02:27:32;225.10;;;210.23;;
47161;SDS011;32921;53.256;8.198;2023-09-30T02:29:58;242.13;;;226.05;;
47161;SDS011;32921;53.256;8.198;2023-09-30T02:32:24;240.43;;;224.40;;
47161;SDS011;32921;53.256;8.198;2023-09-30T02:34:50;245.60;;;229.60;;
47161;SDS011;32921;53.256;8.198;2023-09-30T02:37:16;235.85;;;220.40;;
47161;SDS011;32921;53.256;8.198;2023-09-30T02:39:43;228.55;;;213.35;;
47161;SDS011;32921;53.256;8.198;2023-09-30T02:42:09;245.13;;;229.15;;
47161;SDS011;32921;53.256;8.198;2023-09-30T02:44:35;246.75;;;230.63;;
47161;SDS011;32921;53.256;8.198;2023-09-30T02:47:00;245.57;;;229.07;;
47161;SDS011;32921;53.256;8.198;2023-09-30T02:49:26;229.60;;;214.35;;
47161;SDS011;32921;53.256;8.198;2023-09-30T02:51:52;239.70;;;223.75;;
47161;SDS011;32921;53.256;8.198;2023-09-30T02:54:18;242.57;;;226.55;;
47161;SDS011;32921;53.256;8.198;2023-09-30T02:56:43;231.43;;;216.18;;
47161;SDS011;32921;53.256;8.198;2023-09-30T02:59:11;233.05;;;217.23;;
47161;SDS011;32921;53.256;8.198;2023-09-30T03:01:37;206.15;;;192.50;;
47161;SDS011;32921;53.256;8.198;2023-09-30T03:04:03;228.85;;;214.05;;
47161;SDS011;32921;53.256;8.198;2023-09-30T03:06:31;232.32;;;217.20;;
47161;SDS011;32921;53.256;8.198;2023-09-30T03:09:00;207.35;;;193.75;;
47161;SDS011;32921;53.256;8.198;2023-09-30T03:11:27;205.90;;;191.98;;
47161;SDS011;32921;53.256;8.198;2023-09-30T03:13:53;222.70;;;208.27;;
47161;SDS011;32921;53.256;8.198;2023-09-30T03:16:20;207.07;;;193.70;;
47161;SDS011;32921;53.256;8.198;2023-09-30T03:18:46;223.73;;;209.35;;
47161;SDS011;32921;53.256;8.198;2023-09-30T03:21:14;228.13;;;213.05;;
47161;SDS011;32921;53.256;8.198;2023-09-30T03:23:41;226.50;;;211.68;;
47161;SDS011;32921;53.256;8.198;2023-09-30T03:26:07;221.07;;;205.25;;
47161;SDS011;32921;53.256;8.198;2023-09-30T03:28:36;229.48;;;214.52;;
47161;SDS011;32921;53.256;8.198;2023-09-30T03:31:03;210.52;;;196.65;;
47161;SDS011;32921;53.256;8.198;2023-09-30T03:33:29;228.48;;;213.15;;
47161;SDS011;32921;53.256;8.198;2023-09-30T03:35:59;221.02;;;206.70;;
47161;SDS011;32921;53.256;8.198;2023-09-30T03:38:25;209.68;;;196.30;;
47161;SDS011;32921;53.256;8.198;2023-09-30T03:40:51;242.75;;;227.30;;
47161;SDS011;32921;53.256;8.198;2023-09-30T03:43:19;212.00;;;198.20;;
47161;SDS011;32921;53.256;8.198;2023-09-30T03:45:46;223.77;;;209.30;;
47161;SDS011;32921;53.256;8.198;2023-09-30T03:48:11;231.40;;;216.27;;
47161;SDS011;32921;53.256;8.198;2023-09-30T03:50:37;233.45;;;218.40;;
47161;SDS011;32921;53.256;8.198;2023-09-30T03:53:03;229.85;;;214.85;;
47161;SDS011;32921;53.256;8.198;2023-09-30T03:55:30;224.43;;;209.77;;
47161;SDS011;32921;53.256;8.198;2023-09-30T03:57:56;229.65;;;214.75;;
47161;SDS011;32921;53.256;8.198;2023-09-30T04:00:22;224.55;;;209.88;;
47161;SDS011;32921;53.256;8.198;2023-09-30T04:02:49;234.73;;;219.43;;
47161;SDS011;32921;53.256;8.198;2023-09-30T04:05:18;230.93;;;215.90;;
47161;SDS011;32921;53.256;8.198;2023-09-30T04:07:49;238.00;;;222.40;;
47161;SDS011;32921;53.256;8.198;2023-09-30T04:10:14;261.33;;;244.35;;
47161;SDS011;32921;53.256;8.198;2023-09-30T04:12:40;231.52;;;216.85;;
47161;SDS011;32921;53.256;8.198;2023-09-30T04:15:06;233.73;;;218.48;;
47161;SDS011;32921;53.256;8.198;2023-09-30T04:17:32;239.23;;;223.75;;
47161;SDS011;32921;53.256;8.198;2023-09-30T04:19:58;219.57;;;205.43;;
47161;SDS011;32921;53.256;8.198;2023-09-30T04:22:24;226.38;;;211.65;;
47161;SDS011;32921;53.256;8.198;2023-09-30T04:24:50;254.57;;;238.25;;
47161;SDS011;32921;53.256;8.198;2023-09-30T04:27:16;235.82;;;220.40;;
47161;SDS011;32921;53.256;8.198;2023-09-30T04:29:42;247.18;;;230.93;;
47161;SDS011;32921;53.256;8.198;2023-09-30T04:32:08;247.98;;;231.82;;
47161;SDS011;32921;53.256;8.198;2023-09-30T04:34:34;238.02;;;222.48;;
47161;SDS011;32921;53.256;8.198;2023-09-30T04:37:00;242.30;;;226.63;;
47161;SDS011;32921;53.256;8.198;2023-09-30T04:39:27;228.07;;;213.18;;
47161;SDS011;32921;53.256;8.198;2023-09-30T04:41:52;238.73;;;223.48;;
47161;SDS011;32921;53.256;8.198;2023-09-30T04:44:19;255.23;;;238.57;;
47161;SDS011;32921;53.256;8.198;2023-09-30T04:46:45;242.85;;;227.15;;
47161;SDS011;32921;53.256;8.198;2023-09-30T04:49:12;238.57;;;222.93;;
47161;SDS011;32921;53.256;8.198;2023-09-30T04:51:39;240.20;;;224.80;;
47161;SDS011;32921;53.256;8.198;2023-09-30T04:54:05;235.63;;;220.35;;
47161;SDS011;32921;53.256;8.198;2023-09-30T04:56:33;229.60;;;215.00;;
47161;SDS011;32921;53.256;8.198;2023-09-30T04:59:00;249.73;;;233.88;;
47161;SDS011;32921;53.256;8.198;2023-09-30T05:01:26;243.30;;;227.50;;
47161;SDS011;32921;53.256;8.198;2023-09-30T05:03:51;240.77;;;225.15;;
47161;SDS011;32921;53.256;8.198;2023-09-30T05:06:18;241.80;;;226.05;;
47161;SDS011;32921;53.256;8.198;2023-09-30T05:08:44;235.95;;;220.88;;
47161;SDS011;32921;53.256;8.198;2023-09-30T05:11:09;234.13;;;219.15;;
47161;SDS011;32921;53.256;8.198;2023-09-30T05:13:35;254.02;;;236.63;;
47161;SDS011;32921;53.256;8.198;2023-09-30T05:16:01;232.10;;;217.02;;
47161;SDS011;32921;53.256;8.198;2023-09-30T05:18:28;246.82;;;230.65;;
47161;SDS011;32921;53.256;8.198;2023-09-30T05:20:54;262.77;;;245.80;;
47161;SDS011;32921;53.256;8.198;2023-09-30T05:23:20;249.73;;;233.50;;
47161;SDS011;32921;53.256;8.198;2023-09-30T05:25:45;238.38;;;222.82;;
47161;SDS011;32921;53.256;8.198;2023-09-30T05:28:11;239.48;;;224.18;;
47161;SDS011;32921;53.256;8.198;2023-09-30T05:30:38;257.73;;;240.60;;
47161;SDS011;32921;53.256;8.198;2023-09-30T05:33:05;251.43;;;234.85;;
47161;SDS011;32921;53.256;8.198;2023-09-30T05:35:31;267.48;;;250.18;;
47161;SDS011;32921;53.256;8.198;2023-09-30T05:37:57;271.63;;;254.00;;
47161;SDS011;32921;53.256;8.198;2023-09-30T05:40:23;261.60;;;244.43;;
47161;SDS011;32921;53.256;8.198;2023-09-30T05:42:52;240.43;;;224.48;;
47161;SDS011;32921;53.256;8.198;2023-09-30T05:45:19;255.50;;;238.95;;
47161;SDS011;32921;53.256;8.198;2023-09-30T05:47:45;253.00;;;236.25;;
47161;SDS011;32921;53.256;8.198;2023-09-30T05:50:10;260.20;;;243.23;;
47161;SDS011;32921;53.256;8.198;2023-09-30T05:52:51;263.70;;;246.32;;
47161;SDS011;32921;53.256;8.198;2023-09-30T05:55:17;277.23;;;259.08;;
47161;SDS011;32921;53.256;8.198;2023-09-30T05:57:49;268.70;;;250.85;;
47161;SDS011;32921;53.256;8.198;2023-09-30T06:00:15;275.80;;;257.45;;
47161;SDS011;32921;53.256;8.198;2023-09-30T06:03:00;283.05;;;264.70;;
47161;SDS011;32921;53.256;8.198;2023-09-30T06:05:26;261.23;;;244.20;;
47161;SDS011;32921;53.256;8.198;2023-09-30T06:07:54;267.38;;;249.48;;
47161;SDS011;32921;53.256;8.198;2023-09-30T06:10:20;249.52;;;232.95;;
47161;SDS011;32921;53.256;8.198;2023-09-30T06:12:46;266.73;;;249.00;;
47161;SDS011;32921;53.256;8.198;2023-09-30T06:15:13;261.67;;;244.38;;
47161;SDS011;32921;53.256;8.198;2023-09-30T06:17:46;265.10;;;247.50;;
47161;SDS011;32921;53.256;8.198;2023-09-30T06:20:17;285.75;;;266.58;;
47161;SDS011;32921;53.256;8.198;2023-09-30T06:22:47;300.80;;;280.67;;
47161;SDS011;32921;53.256;8.198;2023-09-30T06:27:44;230.30;;;215.18;;
47161;SDS011;32921;53.256;8.198;2023-09-30T06:30:11;288.58;;;269.15;;
47161;SDS011;32921;53.256;8.198;2023-09-30T06:32:38;265.38;;;247.57;;
47161;SDS011;32921;53.256;8.198;2023-09-30T06:35:05;276.55;;;257.85;;
47161;SDS011;32921;53.256;8.198;2023-09-30T06:37:31;283.55;;;264.30;;
47161;SDS011;32921;53.256;8.198;2023-09-30T06:39:57;292.52;;;272.77;;
47161;SDS011;32921;53.256;8.198;2023-09-30T06:42:24;271.13;;;252.60;;
47161;SDS011;32921;53.256;8.198;2023-09-30T06:44:50;279.92;;;260.98;;
47161;SDS011;32921;53.256;8.198;2023-09-30T06:47:15;297.33;;;277.50;;
47161;SDS011;32921;53.256;8.198;2023-09-30T06:49:41;270.80;;;252.57;;
47161;SDS011;32921;53.256;8.198;2023-09-30T06:52:06;269.30;;;251.10;;
47161;SDS011;32921;53.256;8.198;2023-09-30T06:54:32;260.10;;;242.63;;
47161;SDS011;32921;53.256;8.198;2023-09-30T06:56:58;261.92;;;242.77;;
47161;SDS011;32921;53.256;8.198;2023-09-30T06:59:23;262.50;;;244.45;;
47161;SDS011;32921;53.256;8.198;2023-09-30T07:01:50;280.35;;;261.33;;
47161;SDS011;32921;53.256;8.198;2023-09-30T07:04:16;280.40;;;261.33;;
47161;SDS011;32921;53.256;8.198;2023-09-30T07:06:41;262.73;;;244.90;;
47161;SDS011;32921;53.256;8.198;2023-09-30T07:09:07;247.65;;;230.98;;
47161;SDS011;32921;53.256;8.198;2023-09-30T07:11:34;281.85;;;262.77;;
47161;SDS011;32921;53.256;8.198;2023-09-30T07:14:00;260.42;;;242.55;;
47161;SDS011;32921;53.256;8.198;2023-09-30T07:16:26;218.93;;;203.95;;
47161;SDS011;32921;53.256;8.198;2023-09-30T07:18:52;238.88;;;222.68;;
47161;SDS011;32921;53.256;8.198;2023-09-30T07:21:17;244.23;;;227.52;;
47161;SDS011;32921;53.256;8.198;2023-09-30T07:23:43;238.18;;;222.32;;
47161;SDS011;32921;53.256;8.198;2023-09-30T07:26:08;226.45;;;211.38;;
47161;SDS011;32921;53.256;8.198;2023-09-30T07:28:34;240.82;;;224.50;;
47161;SDS011;32921;53.256;8.198;2023-09-30T07:30:59;224.13;;;209.02;;
47161;SDS011;32921;53.256;8.198;2023-09-30T07:33:25;219.05;;;204.30;;
47161;SDS011;32921;53.256;8.198;2023-09-30T07:35:51;206.07;;;191.30;;
47161;SDS011;32921;53.256;8.198;2023-09-30T07:38:16;215.15;;;200.50;;
47161;SDS011;32921;53.256;8.198;2023-09-30T07:40:42;197.13;;;183.43;;
47161;SDS011;32921;53.256;8.198;2023-09-30T07:43:08;193.00;;;178.98;;
47161;SDS011;32921;53.256;8.198;2023-09-30T07:45:33;203.02;;;186.95;;
47161;SDS011;32921;53.256;8.198;2023-09-30T07:47:59;224.98;;;206.27;;
47161;SDS011;32921;53.256;8.198;2023-09-30T07:50:25;270.52;;;246.38;;
47161;SDS011;32921;53.256;8.198;2023-09-30T07:52:51;290.77;;;265.00;;
47161;SDS011;32921;53.256;8.198;2023-09-30T07:55:17;291.90;;;266.23;;
47161;SDS011;32921;53.256;8.198;2023-09-30T07:57:42;320.55;;;292.15;;
47161;SDS011;32921;53.256;8.198;2023-09-30T08:00:08;294.58;;;269.80;;
47161;SDS011;32921;53.256;8.198;2023-09-30T08:02:35;260.60;;;238.57;;
47161;SDS011;32921;53.256;8.198;2023-09-30T08:05:01;269.70;;;246.80;;
47161;SDS011;32921;53.256;8.198;2023-09-30T08:07:27;255.68;;;233.82;;
47161;SDS011;32921;53.256;8.198;2023-09-30T08:09:53;223.85;;;203.85;;
47161;SDS011;32921;53.256;8.198;2023-09-30T08:12:18;200.93;;;182.68;;
47161;SDS011;32921;53.256;8.198;2023-09-30T08:14:44;212.85;;;193.93;;
47161;SDS011;32921;53.256;8.198;2023-09-30T08:17:10;210.77;;;192.60;;
47161;SDS011;32921;53.256;8.198;2023-09-30T08:19:36;236.10;;;217.18;;
47161;SDS011;32921;53.256;8.198;2023-09-30T08:22:02;222.95;;;205.75;;
47161;SDS011;32921;53.256;8.198;2023-09-30T08:24:28;240.43;;;221.98;;
47161;SDS011;32921;53.256;8.198;2023-09-30T08:26:54;264.52;;;244.80;;
47161;SDS011;32921;53.256;8.198;2023-09-30T08:29:21;241.25;;;222.57;;
47161;SDS011;32921;53.256;8.198;2023-09-30T08:31:47;239.07;;;219.07;;
47161;SDS011;32921;53.256;8.198;2023-09-30T08:34:12;229.55;;;210.40;;
47161;SDS011;32921;53.256;8.198;2023-09-30T08:36:39;223.40;;;204.35;;
47161;SDS011;32921;53.256;8.198;2023-09-30T08:39:06;217.38;;;199.32;;
47161;SDS011;32921;53.256;8.198;2023-09-30T08:41:32;218.77;;;200.27;;
47161;SDS011;32921;53.256;8.198;2023-09-30T08:44:02;214.02;;;196.10;;
47161;SDS011;32921;53.256;8.198;2023-09-30T08:46:32;203.85;;;186.63;;
47161;SDS011;32921;53.256;8.198;2023-09-30T08:49:02;200.75;;;184.15;;
47161;SDS011;32921;53.256;8.198;2023-09-30T08:51:31;214.40;;;196.10;;
47161;SDS011;32921;53.256;8.198;2023-09-30T08:53:57;183.68;;;168.55;;
47161;SDS011;32921;53.256;8.198;2023-09-30T08:56:26;213.60;;;195.07;;
47161;SDS011;32921;53.256;8.198;2023-09-30T08:58:56;180.73;;;165.55;;
47161;SDS011;32921;53.256;8.198;2023-09-30T09:01:24;210.75;;;192.73;;
47161;SDS011;32921;53.256;8.198;2023-09-30T09:03:51;234.27;;;213.65;;
47161;SDS011;32921;53.256;8.198;2023-09-30T09:06:18;216.95;;;198.55;;
47161;SDS011;32921;53.256;8.198;2023-09-30T09:08:45;185.65;;;169.75;;
47161;SDS011;32921;53.256;8.198;2023-09-30T09:11:12;223.05;;;204.27;;
47161;SDS011;32921;53.256;8.198;2023-09-30T09:13:46;179.43;;;163.93;;
47161;SDS011;32921;53.256;8.198;2023-09-30T09:16:15;217.98;;;199.48;;
47161;SDS011;32921;53.256;8.198;2023-09-30T09:18:43;196.57;;;179.68;;
47161;SDS011;32921;53.256;8.198;2023-09-30T09:21:12;207.85;;;189.73;;
47161;SDS011;32921;53.256;8.198;2023-09-30T09:23:40;222.98;;;203.52;;
47161;SDS011;32921;53.256;8.198;2023-09-30T09:26:11;232.93;;;212.38;;
47161;SDS011;32921;53.256;8.198;2023-09-30T09:28:49;234.27;;;212.98;;
47161;SDS011;32921;53.256;8.198;2023-09-30T09:31:21;246.02;;;223.18;;
47161;SDS011;32921;53.256;8.198;2023-09-30T09:33:48;289.08;;;262.60;;
47161;SDS011;32921;53.256;8.198;2023-09-30T09:36:15;260.80;;;236.15;;
47161;SDS011;32921;53.256;8.198;2023-09-30T09:38:44;282.83;;;253.98;;
47161;SDS011;32921;53.256;8.198;2023-09-30T09:41:15;321.95;;;290.50;;
47161;SDS011;32921;53.256;8.198;2023-09-30T09:43:42;341.30;;;308.67;;
47161;SDS011;32921;53.256;8.198;2023-09-30T09:46:08;337.17;;;304.35;;
47161;SDS011;32921;53.256;8.198;2023-09-30T09:48:35;369.38;;;333.27;;
47161;SDS011;32921;53.256;8.198;2023-09-30T09:51:02;380.95;;;342.65;;
47161;SDS011;32921;53.256;8.198;2023-09-30T09:53:30;399.92;;;361.45;;
47161;SDS011;32921;53.256;8.198;2023-09-30T09:55:59;359.88;;;325.17;;
47161;SDS011;32921;53.256;8.198;2023-09-30T09:58:24;418.92;;;380.63;;
47161;SDS011;32921;53.256;8.198;2023-09-30T10:00:51;427.70;;;388.88;;
47161;SDS011;32921;53.256;8.198;2023-09-30T10:03:18;440.02;;;401.15;;
47161;SDS011;32921;53.256;8.198;2023-09-30T10:05:43;478.33;;;437.67;;
47161;SDS011;32921;53.256;8.198;2023-09-30T10:08:14;519.33;;;475.50;;
47161;SDS011;32921;53.256;8.198;2023-09-30T10:10:43;529.30;;;486.00;;
47161;SDS011;32921;53.256;8.198;2023-09-30T10:13:40;612.78;;;564.42;;
47161;SDS011;32921;53.256;8.198;2023-09-30T10:16:46;641.58;;;592.97;;
47161;SDS011;32921;53.256;8.198;2023-09-30T10:24:44;656.67;;;607.25;;
47161;SDS011;32921;53.256;8.198;2023-09-30T10:40:53;519.53;;;473.85;;
47161;SDS011;32921;53.256;8.198;2023-09-30T10:45:56;478.38;;;437.25;;
47161;SDS011;32921;53.256;8.198;2023-09-30T10:50:53;480.15;;;436.05;;
47161;SDS011;32921;53.256;8.198;2023-09-30T10:53:25;472.75;;;430.15;;
47161;SDS011;32921;53.256;8.198;2023-09-30T10:55:55;446.60;;;405.20;;
47161;SDS011;32921;53.256;8.198;2023-09-30T11:01:10;470.40;;;426.58;;
47161;SDS011;32921;53.256;8.198;2023-09-30T11:03:46;478.83;;;432.48;;
47161;SDS011;32921;53.256;8.198;2023-09-30T11:06:13;471.10;;;425.63;;
47161;SDS011;32921;53.256;8.198;2023-09-30T11:09:03;461.35;;;416.30;;
47161;SDS011;32921;53.256;8.198;2023-09-30T11:11:47;421.55;;;382.08;;
47161;SDS011;32921;53.256;8.198;2023-09-30T11:14:27;478.02;;;433.45;;
47161;SDS011;32921;53.256;8.198;2023-09-30T11:16:57;441.38;;;399.13;;
47161;SDS011;32921;53.256;8.198;2023-09-30T11:19:35;426.35;;;382.65;;
47161;SDS011;32921;53.256;8.198;2023-09-30T11:22:04;401.67;;;359.83;;
47161;SDS011;32921;53.256;8.198;2023-09-30T11:24:30;385.27;;;344.95;;
47161;SDS011;32921;53.256;8.198;2023-09-30T11:27:01;387.55;;;347.25;;
47161;SDS011;32921;53.256;8.198;2023-09-30T11:29:27;403.83;;;361.38;;
47161;SDS011;32921;53.256;8.198;2023-09-30T11:31:52;376.42;;;338.48;;
47161;SDS011;32921;53.256;8.198;2023-09-30T11:34:18;407.52;;;366.00;;
47161;SDS011;32921;53.256;8.198;2023-09-30T11:36:51;380.23;;;341.27;;
47161;SDS011;32921;53.256;8.198;2023-09-30T11:39:24;390.63;;;351.88;;
47161;SDS011;32921;53.256;8.198;2023-09-30T11:41:51;420.23;;;378.48;;
47161;SDS011;32921;53.256;8.198;2023-09-30T11:44:17;383.35;;;343.63;;
47161;SDS011;32921;53.256;8.198;2023-09-30T11:50:02;398.20;;;357.05;;
47161;SDS011;32921;53.256;8.198;2023-09-30T11:52:25;402.85;;;362.77;;
47161;SDS011;32921;53.256;8.198;2023-09-30T11:54:52;422.77;;;379.63;;
47161;SDS011;32921;53.256;8.198;2023-09-30T11:57:18;383.80;;;343.00;;
47161;SDS011;32921;53.256;8.198;2023-09-30T11:59:44;373.83;;;333.27;;
47161;SDS011;32921;53.256;8.198;2023-09-30T12:02:11;361.70;;;325.38;;
47161;SDS011;32921;53.256;8.198;2023-09-30T12:04:39;358.92;;;322.10;;
47161;SDS011;32921;53.256;8.198;2023-09-30T12:07:05;353.00;;;315.02;;
47161;SDS011;32921;53.256;8.198;2023-09-30T12:09:34;378.00;;;336.63;;
47161;SDS011;32921;53.256;8.198;2023-09-30T12:12:02;359.98;;;321.90;;
47161;SDS011;32921;53.256;8.198;2023-09-30T12:14:28;371.90;;;333.52;;
47161;SDS011;32921;53.256;8.198;2023-09-30T12:16:57;352.35;;;314.27;;
47161;SDS011;32921;53.256;8.198;2023-09-30T12:19:23;361.75;;;325.02;;
47161;SDS011;32921;53.256;8.198;2023-09-30T12:21:50;400.23;;;359.02;;
47161;SDS011;32921;53.256;8.198;2023-09-30T12:24:15;398.50;;;357.10;;
47161;SDS011;32921;53.256;8.198;2023-09-30T12:26:45;413.05;;;372.67;;
47161;SDS011;32921;53.256;8.198;2023-09-30T12:29:13;446.58;;;403.30;;
47161;SDS011;32921;53.256;8.198;2023-09-30T12:31:43;440.13;;;398.67;;
47161;SDS011;32921;53.256;8.198;2023-09-30T12:34:12;409.27;;;370.38;;
47161;SDS011;32921;53.256;8.198;2023-09-30T12:36:42;431.25;;;389.30;;
47161;SDS011;32921;53.256;8.198;2023-09-30T12:39:08;451.92;;;408.67;;
47161;SDS011;32921;53.256;8.198;2023-09-30T12:41:39;461.63;;;418.48;;
47161;SDS011;32921;53.256;8.198;2023-09-30T12:44:06;517.63;;;470.10;;
47161;SDS011;32921;53.256;8.198;2023-09-30T12:46:32;542.28;;;493.60;;
47161;SDS011;32921;53.256;8.198;2023-09-30T12:49:05;539.65;;;490.50;;
47161;SDS011;32921;53.256;8.198;2023-09-30T12:51:31;527.38;;;479.40;;
47161;SDS011;32921;53.256;8.198;2023-09-30T12:53:57;511.58;;;464.42;;
47161;SDS011;32921;53.256;8.198;2023-09-30T12:56:23;498.52;;;453.42;;
47161;SDS011;32921;53.256;8.198;2023-09-30T12:58:49;484.40;;;441.70;;
47161;SDS011;32921;53.256;8.198;2023-09-30T13:01:15;460.25;;;419.85;;
47161;SDS011;32921;53.256;8.198;2023-09-30T13:03:44;482.58;;;439.65;;
47161;SDS011;32921;53.256;8.198;2023-09-30T13:06:11;477.35;;;435.08;;
47161;SDS011;32921;53.256;8.198;2023-09-30T13:08:37;481.13;;;437.45;;
47161;SDS011;32921;53.256;8.198;2023-09-30T13:11:03;478.02;;;435.67;;
47161;SDS011;32921;53.256;8.198;2023-09-30T13:13:29;501.77;;;456.65;;
47161;SDS011;32921;53.256;8.198;2023-09-30T13:15:58;492.85;;;449.38;;
47161;SDS011;32921;53.256;8.198;2023-09-30T13:18:24;480.23;;;436.60;;
47161;SDS011;32921;53.256;8.198;2023-09-30T13:20:49;502.98;;;458.60;;
47161;SDS011;32921;53.256;8.198;2023-09-30T13:23:17;485.40;;;441.95;;
47161;SDS011;32921;53.256;8.198;2023-09-30T13:25:43;459.08;;;417.90;;
47161;SDS011;32921;53.256;8.198;2023-09-30T13:28:09;479.75;;;435.23;;
47161;SDS011;32921;53.256;8.198;2023-09-30T13:30:35;484.35;;;440.33;;
47161;SDS011;32921;53.256;8.198;2023-09-30T13:33:01;508.67;;;461.38;;
47161;SDS011;32921;53.256;8.198;2023-09-30T13:35:26;487.27;;;441.92;;
47161;SDS011;32921;53.256;8.198;2023-09-30T13:37:52;447.73;;;405.75;;
47161;SDS011;32921;53.256;8.198;2023-09-30T13:40:18;476.35;;;429.10;;
47161;SDS011;32921;53.256;8.198;2023-09-30T13:42:44;434.52;;;390.65;;
47161;SDS011;32921;53.256;8.198;2023-09-30T13:45:10;425.67;;;382.05;;
47161;SDS011;32921;53.256;8.198;2023-09-30T13:47:36;386.15;;;346.25;;
47161;SDS011;32921;53.256;8.198;2023-09-30T13:50:02;374.85;;;329.85;;
47161;SDS011;32921;53.256;8.198;2023-09-30T13:52:32;406.80;;;364.20;;
47161;SDS011;32921;53.256;8.198;2023-09-30T13:54:59;447.63;;;398.95;;
47161;SDS011;32921;53.256;8.198;2023-09-30T13:57:24;446.23;;;399.75;;
47161;SDS011;32921;53.256;8.198;2023-09-30T13:59:50;483.63;;;434.65;;
47161;SDS011;32921;53.256;8.198;2023-09-30T14:02:15;480.98;;;429.50;;
47161;SDS011;32921;53.256;8.198;2023-09-30T14:04:41;455.42;;;407.33;;
47161;SDS011;32921;53.256;8.198;2023-09-30T14:07:06;411.83;;;367.40;;
47161;SDS011;32921;53.256;8.198;2023-09-30T14:09:32;484.40;;;435.35;;
47161;SDS011;32921;53.256;8.198;2023-09-30T14:11:58;396.10;;;352.85;;
47161;SDS011;32921;53.256;8.198;2023-09-30T14:14:24;435.80;;;390.38;;
47161;SDS011;32921;53.256;8.198;2023-09-30T14:16:50;432.52;;;387.05;;
47161;SDS011;32921;53.256;8.198;2023-09-30T14:19:16;422.83;;;375.27;;
47161;SDS011;32921;53.256;8.198;2023-09-30T14:21:41;427.10;;;379.73;;
47161;SDS011;32921;53.256;8.198;2023-09-30T14:24:07;414.67;;;365.13;;
47161;SDS011;32921;53.256;8.198;2023-09-30T14:26:32;404.30;;;360.65;;
47161;SDS011;32921;53.256;8.198;2023-09-30T14:28:58;362.15;;;316.77;;